sensor_id;sensor_type;location;lat;lon;timestamp;P1;durP1;ratioP1;P2;durP2;ratioP2
8978;SDS011;4524;51.364;5.448;2024-02-21T00:01:13;20.48;;;6.03;;
8978;SDS011;4524;51.364;5.448;2024-02-21T00:03:42;14.50;;;6.53;;
8978;SDS011;4524;51.364;5.448;2024-02-21T00:06:10;15.40;;;4.63;;
8978;SDS011;4524;51.364;5.448;2024-02-21T00:08:38;16.35;;;5.95;;
8978;SDS011;4524;51.364;5.448;2024-02-21T00:11:06;13.95;;;6.03;;
8978;SDS011;4524;51.364;5.448;2024-02-21T00:13:34;18.48;;;6.45;;
8978;SDS011;4524;51.364;5.448;2024-02-21T00:16:04;11.73;;;4.90;;
8978;SDS011;4524;51.364;5.448;2024-02-21T00:18:32;17.90;;;5.60;;
8978;SDS011;4524;51.364;5.448;2024-02-21T00:21:00;16.70;;;7.57;;
8978;SDS011;4524;51.364;5.448;2024-02-21T00:23:29;20.65;;;7.03;;
8978;SDS011;4524;51.364;5.448;2024-02-21T00:25:57;14.10;;;7.18;;
8978;SDS011;4524;51.364;5.448;2024-02-21T00:28:25;18.75;;;7.50;;
8978;SDS011;4524;51.364;5.448;2024-02-21T00:30:53;15.32;;;6.80;;
8978;SDS011;4524;51.364;5.448;2024-02-21T00:33:22;12.52;;;6.85;;
8978;SDS011;4524;51.364;5.448;2024-02-21T00:35:50;17.05;;;7.50;;
8978;SDS011;4524;51.364;5.448;2024-02-21T00:38:18;15.75;;;5.40;;
8978;SDS011;4524;51.364;5.448;2024-02-21T00:40:47;14.95;;;6.60;;
8978;SDS011;4524;51.364;5.448;2024-02-21T00:43:15;17.20;;;6.60;;
8978;SDS011;4524;51.364;5.448;2024-02-21T00:45:43;14.63;;;5.30;;
8978;SDS011;4524;51.364;5.448;2024-02-21T00:48:11;13.50;;;7.47;;
8978;SDS011;4524;51.364;5.448;2024-02-21T00:50:40;14.82;;;6.13;;
8978;SDS011;4524;51.364;5.448;2024-02-21T00:53:08;13.15;;;5.30;;
8978;SDS011;4524;51.364;5.448;2024-02-21T00:55:36;12.43;;;5.05;;
8978;SDS011;4524;51.364;5.448;2024-02-21T00:58:05;12.90;;;6.13;;
8978;SDS011;4524;51.364;5.448;2024-02-21T01:00:33;12.07;;;4.32;;
8978;SDS011;4524;51.364;5.448;2024-02-21T01:03:01;15.60;;;6.18;;
8978;SDS011;4524;51.364;5.448;2024-02-21T01:05:29;11.15;;;4.93;;
8978;SDS011;4524;51.364;5.448;2024-02-21T01:07:58;12.25;;;5.35;;
8978;SDS011;4524;51.364;5.448;2024-02-21T01:10:27;16.27;;;6.68;;
8978;SDS011;4524;51.364;5.448;2024-02-21T01:12:55;11.32;;;5.38;;
8978;SDS011;4524;51.364;5.448;2024-02-21T01:15:23;11.95;;;6.03;;
8978;SDS011;4524;51.364;5.448;2024-02-21T01:17:51;12.45;;;5.57;;
8978;SDS011;4524;51.364;5.448;2024-02-21T01:20:21;15.63;;;6.65;;
8978;SDS011;4524;51.364;5.448;2024-02-21T01:22:49;14.30;;;6.55;;
8978;SDS011;4524;51.364;5.448;2024-02-21T01:25:18;25.23;;;7.55;;
8978;SDS011;4524;51.364;5.448;2024-02-21T01:27:46;11.30;;;4.25;;
8978;SDS011;4524;51.364;5.448;2024-02-21T01:30:15;13.35;;;6.03;;
8978;SDS011;4524;51.364;5.448;2024-02-21T01:32:43;8.93;;;6.35;;
8978;SDS011;4524;51.364;5.448;2024-02-21T01:35:11;15.02;;;6.63;;
8978;SDS011;4524;51.364;5.448;2024-02-21T01:37:39;12.57;;;6.10;;
8978;SDS011;4524;51.364;5.448;2024-02-21T01:40:07;13.45;;;5.30;;
8978;SDS011;4524;51.364;5.448;2024-02-21T01:42:39;14.02;;;4.93;;
8978;SDS011;4524;51.364;5.448;2024-02-21T01:45:07;7.32;;;4.68;;
8978;SDS011;4524;51.364;5.448;2024-02-21T01:47:36;12.80;;;5.07;;
8978;SDS011;4524;51.364;5.448;2024-02-21T01:50:05;7.97;;;3.88;;
8978;SDS011;4524;51.364;5.448;2024-02-21T01:52:34;11.88;;;4.85;;
8978;SDS011;4524;51.364;5.448;2024-02-21T01:55:03;7.28;;;4.05;;
8978;SDS011;4524;51.364;5.448;2024-02-21T01:57:32;13.10;;;4.50;;
8978;SDS011;4524;51.364;5.448;2024-02-21T02:00:02;11.95;;;4.68;;
8978;SDS011;4524;51.364;5.448;2024-02-21T02:02:36;10.93;;;5.05;;
8978;SDS011;4524;51.364;5.448;2024-02-21T02:05:06;10.30;;;4.38;;
8978;SDS011;4524;51.364;5.448;2024-02-21T02:07:35;11.68;;;4.85;;
8978;SDS011;4524;51.364;5.448;2024-02-21T02:10:04;15.25;;;4.05;;
8978;SDS011;4524;51.364;5.448;2024-02-21T02:12:32;9.68;;;4.53;;
8978;SDS011;4524;51.364;5.448;2024-02-21T02:15:02;8.00;;;3.75;;
8978;SDS011;4524;51.364;5.448;2024-02-21T02:17:31;16.55;;;4.60;;
8978;SDS011;4524;51.364;5.448;2024-02-21T02:19:59;9.85;;;4.15;;
8978;SDS011;4524;51.364;5.448;2024-02-21T02:22:28;11.15;;;3.63;;
8978;SDS011;4524;51.364;5.448;2024-02-21T02:24:58;12.80;;;4.65;;
8978;SDS011;4524;51.364;5.448;2024-02-21T02:27:26;7.25;;;3.67;;
8978;SDS011;4524;51.364;5.448;2024-02-21T02:29:54;12.20;;;3.80;;
8978;SDS011;4524;51.364;5.448;2024-02-21T02:32:22;7.45;;;3.15;;
8978;SDS011;4524;51.364;5.448;2024-02-21T02:34:50;10.30;;;3.90;;
8978;SDS011;4524;51.364;5.448;2024-02-21T02:37:18;8.70;;;3.50;;
8978;SDS011;4524;51.364;5.448;2024-02-21T02:39:46;10.88;;;4.43;;
8978;SDS011;4524;51.364;5.448;2024-02-21T02:42:16;7.03;;;3.72;;
8978;SDS011;4524;51.364;5.448;2024-02-21T02:44:45;10.52;;;3.58;;
8978;SDS011;4524;51.364;5.448;2024-02-21T02:47:13;8.90;;;3.60;;
8978;SDS011;4524;51.364;5.448;2024-02-21T02:49:40;7.85;;;3.47;;
8978;SDS011;4524;51.364;5.448;2024-02-21T02:52:10;7.78;;;3.70;;
8978;SDS011;4524;51.364;5.448;2024-02-21T02:54:38;7.28;;;4.15;;
8978;SDS011;4524;51.364;5.448;2024-02-21T02:57:06;12.35;;;3.50;;
8978;SDS011;4524;51.364;5.448;2024-02-21T02:59:35;9.73;;;3.58;;
8978;SDS011;4524;51.364;5.448;2024-02-21T03:02:04;6.50;;;3.70;;
8978;SDS011;4524;51.364;5.448;2024-02-21T03:04:32;9.88;;;3.28;;
8978;SDS011;4524;51.364;5.448;2024-02-21T03:07:00;11.25;;;3.47;;
8978;SDS011;4524;51.364;5.448;2024-02-21T03:09:28;12.65;;;4.00;;
8978;SDS011;4524;51.364;5.448;2024-02-21T03:11:56;9.38;;;4.05;;
8978;SDS011;4524;51.364;5.448;2024-02-21T03:14:29;18.70;;;4.85;;
8978;SDS011;4524;51.364;5.448;2024-02-21T03:16:59;10.93;;;3.65;;
8978;SDS011;4524;51.364;5.448;2024-02-21T03:19:27;10.02;;;3.65;;
8978;SDS011;4524;51.364;5.448;2024-02-21T03:21:56;12.15;;;3.85;;
8978;SDS011;4524;51.364;5.448;2024-02-21T03:24:24;11.52;;;3.58;;
8978;SDS011;4524;51.364;5.448;2024-02-21T03:26:52;11.25;;;4.68;;
8978;SDS011;4524;51.364;5.448;2024-02-21T03:29:20;17.02;;;4.63;;
8978;SDS011;4524;51.364;5.448;2024-02-21T03:31:48;12.95;;;3.85;;
8978;SDS011;4524;51.364;5.448;2024-02-21T03:34:17;9.07;;;4.32;;
8978;SDS011;4524;51.364;5.448;2024-02-21T03:36:45;14.82;;;4.85;;
8978;SDS011;4524;51.364;5.448;2024-02-21T03:39:13;9.25;;;5.70;;
8978;SDS011;4524;51.364;5.448;2024-02-21T03:41:41;13.13;;;5.20;;
8978;SDS011;4524;51.364;5.448;2024-02-21T03:44:09;15.68;;;5.32;;
8978;SDS011;4524;51.364;5.448;2024-02-21T03:46:37;13.50;;;5.03;;
8978;SDS011;4524;51.364;5.448;2024-02-21T03:49:05;12.48;;;5.60;;
8978;SDS011;4524;51.364;5.448;2024-02-21T03:51:35;12.02;;;5.45;;
8978;SDS011;4524;51.364;5.448;2024-02-21T03:54:03;14.02;;;5.25;;
8978;SDS011;4524;51.364;5.448;2024-02-21T03:56:31;20.88;;;4.82;;
8978;SDS011;4524;51.364;5.448;2024-02-21T03:58:59;8.20;;;5.05;;
8978;SDS011;4524;51.364;5.448;2024-02-21T04:01:27;16.90;;;5.00;;
8978;SDS011;4524;51.364;5.448;2024-02-21T04:03:55;13.05;;;5.65;;
8978;SDS011;4524;51.364;5.448;2024-02-21T04:06:23;12.20;;;6.47;;
8978;SDS011;4524;51.364;5.448;2024-02-21T04:08:52;14.60;;;5.60;;
8978;SDS011;4524;51.364;5.448;2024-02-21T04:11:20;12.38;;;5.45;;
8978;SDS011;4524;51.364;5.448;2024-02-21T04:13:49;15.68;;;5.30;;
8978;SDS011;4524;51.364;5.448;2024-02-21T04:16:17;15.25;;;5.82;;
8978;SDS011;4524;51.364;5.448;2024-02-21T04:18:45;10.90;;;5.28;;
8978;SDS011;4524;51.364;5.448;2024-02-21T04:21:14;13.30;;;5.60;;
8978;SDS011;4524;51.364;5.448;2024-02-21T04:23:42;13.35;;;5.32;;
8978;SDS011;4524;51.364;5.448;2024-02-21T04:26:12;15.43;;;6.15;;
8978;SDS011;4524;51.364;5.448;2024-02-21T04:28:40;11.52;;;5.47;;
8978;SDS011;4524;51.364;5.448;2024-02-21T04:31:08;17.85;;;5.55;;
8978;SDS011;4524;51.364;5.448;2024-02-21T04:33:36;15.63;;;6.35;;
8978;SDS011;4524;51.364;5.448;2024-02-21T04:36:04;13.98;;;5.53;;
8978;SDS011;4524;51.364;5.448;2024-02-21T04:38:32;14.25;;;7.47;;
8978;SDS011;4524;51.364;5.448;2024-02-21T04:41:00;12.65;;;5.13;;
8978;SDS011;4524;51.364;5.448;2024-02-21T04:43:29;13.05;;;6.07;;
8978;SDS011;4524;51.364;5.448;2024-02-21T04:45:57;12.55;;;6.40;;
8978;SDS011;4524;51.364;5.448;2024-02-21T04:48:26;19.58;;;7.05;;
8978;SDS011;4524;51.364;5.448;2024-02-21T04:50:54;19.65;;;7.88;;
8978;SDS011;4524;51.364;5.448;2024-02-21T04:53:22;12.82;;;7.05;;
8978;SDS011;4524;51.364;5.448;2024-02-21T04:55:50;13.35;;;5.50;;
8978;SDS011;4524;51.364;5.448;2024-02-21T04:58:18;13.93;;;6.85;;
8978;SDS011;4524;51.364;5.448;2024-02-21T05:00:48;12.75;;;6.63;;
8978;SDS011;4524;51.364;5.448;2024-02-21T05:03:16;15.35;;;6.72;;
8978;SDS011;4524;51.364;5.448;2024-02-21T05:05:44;11.95;;;6.18;;
8978;SDS011;4524;51.364;5.448;2024-02-21T05:08:12;13.15;;;6.07;;
8978;SDS011;4524;51.364;5.448;2024-02-21T05:10:40;12.02;;;6.90;;
8978;SDS011;4524;51.364;5.448;2024-02-21T05:13:08;19.55;;;7.05;;
8978;SDS011;4524;51.364;5.448;2024-02-21T05:15:36;12.35;;;5.68;;
8978;SDS011;4524;51.364;5.448;2024-02-21T05:20:34;19.65;;;8.75;;
8978;SDS011;4524;51.364;5.448;2024-02-21T05:23:02;16.13;;;8.43;;
8978;SDS011;4524;51.364;5.448;2024-02-21T05:25:30;16.70;;;8.00;;
8978;SDS011;4524;51.364;5.448;2024-02-21T05:27:58;20.13;;;7.55;;
8978;SDS011;4524;51.364;5.448;2024-02-21T05:30:28;15.20;;;12.13;;
8978;SDS011;4524;51.364;5.448;2024-02-21T05:32:57;41.92;;;38.50;;
8978;SDS011;4524;51.364;5.448;2024-02-21T05:35:27;25.08;;;17.80;;
8978;SDS011;4524;51.364;5.448;2024-02-21T05:37:56;17.48;;;7.82;;
8978;SDS011;4524;51.364;5.448;2024-02-21T05:40:24;20.35;;;7.75;;
8978;SDS011;4524;51.364;5.448;2024-02-21T05:42:52;17.15;;;8.05;;
8978;SDS011;4524;51.364;5.448;2024-02-21T05:45:20;14.77;;;7.28;;
8978;SDS011;4524;51.364;5.448;2024-02-21T05:47:48;15.70;;;6.95;;
8978;SDS011;4524;51.364;5.448;2024-02-21T05:50:16;15.27;;;6.13;;
8978;SDS011;4524;51.364;5.448;2024-02-21T05:52:46;14.63;;;6.43;;
8978;SDS011;4524;51.364;5.448;2024-02-21T05:55:14;10.15;;;5.45;;
8978;SDS011;4524;51.364;5.448;2024-02-21T05:57:42;13.35;;;6.45;;
8978;SDS011;4524;51.364;5.448;2024-02-21T06:00:10;13.05;;;6.03;;
8978;SDS011;4524;51.364;5.448;2024-02-21T06:05:07;11.82;;;6.68;;
8978;SDS011;4524;51.364;5.448;2024-02-21T06:07:35;14.50;;;6.82;;
8978;SDS011;4524;51.364;5.448;2024-02-21T06:10:06;11.43;;;5.78;;
8978;SDS011;4524;51.364;5.448;2024-02-21T06:12:35;11.70;;;5.93;;
8978;SDS011;4524;51.364;5.448;2024-02-21T06:15:03;13.80;;;6.05;;
8978;SDS011;4524;51.364;5.448;2024-02-21T06:17:31;15.05;;;6.30;;
8978;SDS011;4524;51.364;5.448;2024-02-21T06:20:00;15.40;;;5.80;;
8978;SDS011;4524;51.364;5.448;2024-02-21T06:22:28;15.45;;;6.28;;
8978;SDS011;4524;51.364;5.448;2024-02-21T06:24:57;10.43;;;6.07;;
8978;SDS011;4524;51.364;5.448;2024-02-21T06:27:27;16.13;;;6.15;;
8978;SDS011;4524;51.364;5.448;2024-02-21T06:29:55;12.85;;;7.47;;
8978;SDS011;4524;51.364;5.448;2024-02-21T06:32:23;13.13;;;6.03;;
8978;SDS011;4524;51.364;5.448;2024-02-21T06:34:51;21.27;;;7.22;;
8978;SDS011;4524;51.364;5.448;2024-02-21T06:37:19;16.92;;;6.03;;
8978;SDS011;4524;51.364;5.448;2024-02-21T06:39:48;14.48;;;7.00;;
8978;SDS011;4524;51.364;5.448;2024-02-21T06:42:15;20.60;;;8.25;;
8978;SDS011;4524;51.364;5.448;2024-02-21T06:44:45;9.30;;;4.80;;
8978;SDS011;4524;51.364;5.448;2024-02-21T06:47:13;13.95;;;6.05;;
8978;SDS011;4524;51.364;5.448;2024-02-21T06:49:41;17.65;;;7.18;;
8978;SDS011;4524;51.364;5.448;2024-02-21T06:54:37;11.98;;;7.82;;
8978;SDS011;4524;51.364;5.448;2024-02-21T06:57:06;9.85;;;5.60;;
8978;SDS011;4524;51.364;5.448;2024-02-21T06:59:34;11.00;;;6.25;;
8978;SDS011;4524;51.364;5.448;2024-02-21T07:02:03;14.63;;;5.90;;
8978;SDS011;4524;51.364;5.448;2024-02-21T07:04:31;18.02;;;6.53;;
8978;SDS011;4524;51.364;5.448;2024-02-21T07:07:00;16.23;;;7.22;;
8978;SDS011;4524;51.364;5.448;2024-02-21T07:09:28;11.80;;;6.63;;
8978;SDS011;4524;51.364;5.448;2024-02-21T07:11:58;12.73;;;6.97;;
8978;SDS011;4524;51.364;5.448;2024-02-21T07:14:27;10.65;;;4.97;;
8978;SDS011;4524;51.364;5.448;2024-02-21T07:16:55;20.75;;;6.40;;
8978;SDS011;4524;51.364;5.448;2024-02-21T07:19:25;10.23;;;5.00;;
8978;SDS011;4524;51.364;5.448;2024-02-21T07:21:54;11.07;;;5.93;;
8978;SDS011;4524;51.364;5.448;2024-02-21T07:24:23;13.80;;;5.47;;
8978;SDS011;4524;51.364;5.448;2024-02-21T07:26:50;12.68;;;5.03;;
8978;SDS011;4524;51.364;5.448;2024-02-21T07:29:19;9.10;;;4.40;;
8978;SDS011;4524;51.364;5.448;2024-02-21T07:31:48;10.30;;;6.20;;
8978;SDS011;4524;51.364;5.448;2024-02-21T07:34:18;11.73;;;5.30;;
8978;SDS011;4524;51.364;5.448;2024-02-21T07:36:48;13.85;;;5.28;;
8978;SDS011;4524;51.364;5.448;2024-02-21T07:39:16;13.07;;;5.40;;
8978;SDS011;4524;51.364;5.448;2024-02-21T07:41:44;12.15;;;4.82;;
8978;SDS011;4524;51.364;5.448;2024-02-21T07:44:14;10.60;;;5.97;;
8978;SDS011;4524;51.364;5.448;2024-02-21T07:46:42;9.90;;;4.95;;
8978;SDS011;4524;51.364;5.448;2024-02-21T07:49:10;8.40;;;4.32;;
8978;SDS011;4524;51.364;5.448;2024-02-21T07:51:38;9.88;;;4.85;;
8978;SDS011;4524;51.364;5.448;2024-02-21T07:54:07;9.68;;;3.72;;
8978;SDS011;4524;51.364;5.448;2024-02-21T07:56:40;11.20;;;4.47;;
8978;SDS011;4524;51.364;5.448;2024-02-21T07:59:08;12.35;;;5.28;;
8978;SDS011;4524;51.364;5.448;2024-02-21T08:01:36;9.23;;;4.00;;
8978;SDS011;4524;51.364;5.448;2024-02-21T08:04:04;10.18;;;4.65;;
8978;SDS011;4524;51.364;5.448;2024-02-21T08:06:33;8.45;;;4.32;;
8978;SDS011;4524;51.364;5.448;2024-02-21T08:09:01;10.93;;;3.83;;
8978;SDS011;4524;51.364;5.448;2024-02-21T08:11:31;6.93;;;4.10;;
8978;SDS011;4524;51.364;5.448;2024-02-21T08:13:59;9.55;;;3.58;;
8978;SDS011;4524;51.364;5.448;2024-02-21T08:16:27;7.82;;;3.42;;
8978;SDS011;4524;51.364;5.448;2024-02-21T08:18:55;8.07;;;4.15;;
8978;SDS011;4524;51.364;5.448;2024-02-21T08:21:24;6.80;;;3.83;;
8978;SDS011;4524;51.364;5.448;2024-02-21T08:23:52;7.00;;;3.38;;
8978;SDS011;4524;51.364;5.448;2024-02-21T08:26:20;10.10;;;4.63;;
8978;SDS011;4524;51.364;5.448;2024-02-21T08:28:50;8.05;;;3.70;;
8978;SDS011;4524;51.364;5.448;2024-02-21T08:31:18;6.82;;;3.58;;
8978;SDS011;4524;51.364;5.448;2024-02-21T08:33:47;7.25;;;4.43;;
8978;SDS011;4524;51.364;5.448;2024-02-21T08:36:17;4.80;;;3.40;;
8978;SDS011;4524;51.364;5.448;2024-02-21T08:38:46;8.85;;;3.40;;
8978;SDS011;4524;51.364;5.448;2024-02-21T08:41:14;8.88;;;4.10;;
8978;SDS011;4524;51.364;5.448;2024-02-21T08:43:43;11.88;;;4.00;;
8978;SDS011;4524;51.364;5.448;2024-02-21T08:46:12;7.38;;;4.28;;
8978;SDS011;4524;51.364;5.448;2024-02-21T08:48:40;8.15;;;3.85;;
8978;SDS011;4524;51.364;5.448;2024-02-21T08:51:08;8.32;;;4.43;;
8978;SDS011;4524;51.364;5.448;2024-02-21T08:53:37;8.38;;;5.07;;
8978;SDS011;4524;51.364;5.448;2024-02-21T08:56:05;7.32;;;4.18;;
8978;SDS011;4524;51.364;5.448;2024-02-21T08:58:35;9.60;;;4.97;;
8978;SDS011;4524;51.364;5.448;2024-02-21T09:01:04;6.75;;;4.35;;
8978;SDS011;4524;51.364;5.448;2024-02-21T09:06:02;12.15;;;5.18;;
8978;SDS011;4524;51.364;5.448;2024-02-21T09:08:31;11.85;;;4.85;;
8978;SDS011;4524;51.364;5.448;2024-02-21T09:10:59;12.52;;;4.43;;
8978;SDS011;4524;51.364;5.448;2024-02-21T09:13:27;7.78;;;4.35;;
8978;SDS011;4524;51.364;5.448;2024-02-21T09:15:56;7.70;;;4.03;;
8978;SDS011;4524;51.364;5.448;2024-02-21T09:18:25;9.00;;;3.85;;
8978;SDS011;4524;51.364;5.448;2024-02-21T09:20:54;11.68;;;4.47;;
8978;SDS011;4524;51.364;5.448;2024-02-21T09:23:24;8.95;;;4.60;;
8978;SDS011;4524;51.364;5.448;2024-02-21T09:25:52;6.82;;;4.40;;
8978;SDS011;4524;51.364;5.448;2024-02-21T09:28:21;11.63;;;4.43;;
8978;SDS011;4524;51.364;5.448;2024-02-21T09:30:50;20.55;;;5.45;;
8978;SDS011;4524;51.364;5.448;2024-02-21T09:33:18;9.95;;;4.53;;
8978;SDS011;4524;51.364;5.448;2024-02-21T09:35:59;11.05;;;4.30;;
8978;SDS011;4524;51.364;5.448;2024-02-21T09:38:28;5.75;;;3.67;;
8978;SDS011;4524;51.364;5.448;2024-02-21T09:40:58;10.07;;;3.95;;
8978;SDS011;4524;51.364;5.448;2024-02-21T09:43:28;11.13;;;3.75;;
8978;SDS011;4524;51.364;5.448;2024-02-21T09:48:27;10.63;;;3.92;;
8978;SDS011;4524;51.364;5.448;2024-02-21T09:51:08;14.02;;;4.90;;
8978;SDS011;4524;51.364;5.448;2024-02-21T09:53:37;9.18;;;4.60;;
8978;SDS011;4524;51.364;5.448;2024-02-21T09:56:13;11.32;;;3.90;;
8978;SDS011;4524;51.364;5.448;2024-02-21T09:58:42;10.70;;;4.38;;
8978;SDS011;4524;51.364;5.448;2024-02-21T10:01:10;7.55;;;4.07;;
8978;SDS011;4524;51.364;5.448;2024-02-21T10:03:55;8.07;;;3.63;;
8978;SDS011;4524;51.364;5.448;2024-02-21T10:06:26;6.93;;;4.47;;
8978;SDS011;4524;51.364;5.448;2024-02-21T10:08:54;6.78;;;3.85;;
8978;SDS011;4524;51.364;5.448;2024-02-21T10:11:22;8.75;;;5.30;;
8978;SDS011;4524;51.364;5.448;2024-02-21T10:14:02;7.30;;;3.70;;
8978;SDS011;4524;51.364;5.448;2024-02-21T10:16:31;11.07;;;4.20;;
8978;SDS011;4524;51.364;5.448;2024-02-21T10:19:00;8.75;;;3.42;;
8978;SDS011;4524;51.364;5.448;2024-02-21T10:21:31;10.45;;;3.42;;
8978;SDS011;4524;51.364;5.448;2024-02-21T10:23:59;8.52;;;4.03;;
8978;SDS011;4524;51.364;5.448;2024-02-21T10:26:27;6.32;;;3.20;;
8978;SDS011;4524;51.364;5.448;2024-02-21T10:28:55;6.30;;;3.40;;
8978;SDS011;4524;51.364;5.448;2024-02-21T10:31:24;8.68;;;3.55;;
8978;SDS011;4524;51.364;5.448;2024-02-21T10:33:53;7.43;;;3.47;;
8978;SDS011;4524;51.364;5.448;2024-02-21T10:36:22;6.43;;;2.85;;
8978;SDS011;4524;51.364;5.448;2024-02-21T10:38:52;5.32;;;3.00;;
8978;SDS011;4524;51.364;5.448;2024-02-21T10:41:22;14.82;;;4.65;;
8978;SDS011;4524;51.364;5.448;2024-02-21T10:43:51;9.65;;;3.15;;
8978;SDS011;4524;51.364;5.448;2024-02-21T10:46:22;5.03;;;3.17;;
8978;SDS011;4524;51.364;5.448;2024-02-21T10:48:55;9.93;;;3.47;;
8978;SDS011;4524;51.364;5.448;2024-02-21T10:51:33;7.95;;;3.50;;
8978;SDS011;4524;51.364;5.448;2024-02-21T10:54:09;9.88;;;3.38;;
8978;SDS011;4524;51.364;5.448;2024-02-21T10:56:47;9.48;;;3.30;;
8978;SDS011;4524;51.364;5.448;2024-02-21T10:59:18;8.70;;;2.97;;
8978;SDS011;4524;51.364;5.448;2024-02-21T11:01:47;8.73;;;3.20;;
8978;SDS011;4524;51.364;5.448;2024-02-21T11:04:15;7.97;;;3.80;;
8978;SDS011;4524;51.364;5.448;2024-02-21T11:06:44;5.30;;;2.80;;
8978;SDS011;4524;51.364;5.448;2024-02-21T11:09:14;7.45;;;2.55;;
8978;SDS011;4524;51.364;5.448;2024-02-21T11:11:43;19.63;;;3.10;;
8978;SDS011;4524;51.364;5.448;2024-02-21T11:14:17;8.43;;;2.95;;
8978;SDS011;4524;51.364;5.448;2024-02-21T11:16:46;5.97;;;2.80;;
8978;SDS011;4524;51.364;5.448;2024-02-21T11:19:19;8.68;;;2.65;;
8978;SDS011;4524;51.364;5.448;2024-02-21T11:21:48;10.40;;;3.53;;
8978;SDS011;4524;51.364;5.448;2024-02-21T11:24:26;5.05;;;2.97;;
8978;SDS011;4524;51.364;5.448;2024-02-21T11:26:56;11.88;;;3.83;;
8978;SDS011;4524;51.364;5.448;2024-02-21T11:29:24;7.93;;;3.63;;
8978;SDS011;4524;51.364;5.448;2024-02-21T11:31:53;7.82;;;4.45;;
8978;SDS011;4524;51.364;5.448;2024-02-21T11:34:21;8.85;;;3.47;;
8978;SDS011;4524;51.364;5.448;2024-02-21T11:36:49;7.35;;;3.00;;
8978;SDS011;4524;51.364;5.448;2024-02-21T11:39:19;9.35;;;3.60;;
8978;SDS011;4524;51.364;5.448;2024-02-21T11:42:01;9.98;;;3.40;;
8978;SDS011;4524;51.364;5.448;2024-02-21T11:44:30;8.20;;;3.40;;
8978;SDS011;4524;51.364;5.448;2024-02-21T11:46:58;14.00;;;3.42;;
8978;SDS011;4524;51.364;5.448;2024-02-21T11:49:28;15.98;;;5.10;;
8978;SDS011;4524;51.364;5.448;2024-02-21T11:52:00;6.18;;;3.33;;
8978;SDS011;4524;51.364;5.448;2024-02-21T11:54:30;5.40;;;2.60;;
8978;SDS011;4524;51.364;5.448;2024-02-21T11:56:59;7.78;;;3.47;;
8978;SDS011;4524;51.364;5.448;2024-02-21T11:59:29;9.15;;;3.78;;
8978;SDS011;4524;51.364;5.448;2024-02-21T12:01:58;7.50;;;3.90;;
8978;SDS011;4524;51.364;5.448;2024-02-21T12:06:55;6.90;;;3.50;;
8978;SDS011;4524;51.364;5.448;2024-02-21T12:09:24;5.72;;;3.95;;
8978;SDS011;4524;51.364;5.448;2024-02-21T12:12:01;5.60;;;3.20;;
8978;SDS011;4524;51.364;5.448;2024-02-21T12:14:30;4.50;;;2.95;;
8978;SDS011;4524;51.364;5.448;2024-02-21T12:16:59;12.40;;;3.97;;
8978;SDS011;4524;51.364;5.448;2024-02-21T12:19:30;9.88;;;2.95;;
8978;SDS011;4524;51.364;5.448;2024-02-21T12:22:00;6.47;;;3.58;;
8978;SDS011;4524;51.364;5.448;2024-02-21T12:24:32;7.15;;;2.35;;
8978;SDS011;4524;51.364;5.448;2024-02-21T12:27:03;11.88;;;3.50;;
8978;SDS011;4524;51.364;5.448;2024-02-21T12:29:31;5.03;;;2.85;;
8978;SDS011;4524;51.364;5.448;2024-02-21T12:31:59;5.18;;;3.08;;
8978;SDS011;4524;51.364;5.448;2024-02-21T12:34:30;10.65;;;3.40;;
8978;SDS011;4524;51.364;5.448;2024-02-21T12:37:18;5.88;;;2.15;;
8978;SDS011;4524;51.364;5.448;2024-02-21T12:39:46;10.82;;;2.80;;
8978;SDS011;4524;51.364;5.448;2024-02-21T12:42:16;9.60;;;2.78;;
8978;SDS011;4524;51.364;5.448;2024-02-21T12:44:44;9.68;;;3.05;;
8978;SDS011;4524;51.364;5.448;2024-02-21T12:47:12;5.32;;;2.95;;
8978;SDS011;4524;51.364;5.448;2024-02-21T12:49:40;5.55;;;2.92;;
8978;SDS011;4524;51.364;5.448;2024-02-21T12:52:11;8.38;;;2.88;;
8978;SDS011;4524;51.364;5.448;2024-02-21T12:54:40;6.03;;;2.78;;
8978;SDS011;4524;51.364;5.448;2024-02-21T12:57:08;7.50;;;3.17;;
8978;SDS011;4524;51.364;5.448;2024-02-21T12:59:38;7.63;;;2.92;;
8978;SDS011;4524;51.364;5.448;2024-02-21T13:02:06;6.32;;;2.47;;
8978;SDS011;4524;51.364;5.448;2024-02-21T13:04:35;6.68;;;2.85;;
8978;SDS011;4524;51.364;5.448;2024-02-21T13:07:06;7.68;;;2.45;;
8978;SDS011;4524;51.364;5.448;2024-02-21T13:09:34;7.47;;;2.88;;
8978;SDS011;4524;51.364;5.448;2024-02-21T13:12:02;7.43;;;2.92;;
8978;SDS011;4524;51.364;5.448;2024-02-21T13:14:30;14.70;;;4.30;;
8978;SDS011;4524;51.364;5.448;2024-02-21T13:17:00;6.88;;;2.92;;
8978;SDS011;4524;51.364;5.448;2024-02-21T13:19:29;5.40;;;1.60;;
8978;SDS011;4524;51.364;5.448;2024-02-21T13:21:57;6.68;;;2.63;;
8978;SDS011;4524;51.364;5.448;2024-02-21T13:24:25;6.05;;;2.30;;
8978;SDS011;4524;51.364;5.448;2024-02-21T13:26:53;6.95;;;3.08;;
8978;SDS011;4524;51.364;5.448;2024-02-21T13:29:21;5.22;;;2.72;;
8978;SDS011;4524;51.364;5.448;2024-02-21T13:31:49;8.93;;;3.88;;
8978;SDS011;4524;51.364;5.448;2024-02-21T13:34:18;9.93;;;2.40;;
8978;SDS011;4524;51.364;5.448;2024-02-21T13:36:47;9.57;;;3.20;;
8978;SDS011;4524;51.364;5.448;2024-02-21T13:39:15;7.82;;;2.30;;
8978;SDS011;4524;51.364;5.448;2024-02-21T13:41:45;11.00;;;2.70;;
8978;SDS011;4524;51.364;5.448;2024-02-21T13:44:13;4.97;;;2.08;;
8978;SDS011;4524;51.364;5.448;2024-02-21T13:46:41;4.05;;;2.70;;
8978;SDS011;4524;51.364;5.448;2024-02-21T13:49:09;5.38;;;2.88;;
8978;SDS011;4524;51.364;5.448;2024-02-21T13:51:39;7.13;;;3.60;;
8978;SDS011;4524;51.364;5.448;2024-02-21T13:54:08;4.35;;;2.22;;
8978;SDS011;4524;51.364;5.448;2024-02-21T13:56:37;4.00;;;2.63;;
8978;SDS011;4524;51.364;5.448;2024-02-21T13:59:05;4.40;;;2.63;;
8978;SDS011;4524;51.364;5.448;2024-02-21T14:01:34;6.10;;;3.65;;
8978;SDS011;4524;51.364;5.448;2024-02-21T14:04:03;12.65;;;4.05;;
8978;SDS011;4524;51.364;5.448;2024-02-21T14:06:31;16.42;;;3.88;;
8978;SDS011;4524;51.364;5.448;2024-02-21T14:09:00;3.35;;;1.90;;
8978;SDS011;4524;51.364;5.448;2024-02-21T14:11:29;4.78;;;2.95;;
8978;SDS011;4524;51.364;5.448;2024-02-21T14:13:58;4.53;;;2.40;;
8978;SDS011;4524;51.364;5.448;2024-02-21T14:16:26;8.20;;;3.88;;
8978;SDS011;4524;51.364;5.448;2024-02-21T14:18:56;6.07;;;3.22;;
8978;SDS011;4524;51.364;5.448;2024-02-21T14:21:24;5.22;;;2.28;;
8978;SDS011;4524;51.364;5.448;2024-02-21T14:23:52;8.45;;;3.50;;
8978;SDS011;4524;51.364;5.448;2024-02-21T14:26:21;5.15;;;3.45;;
8978;SDS011;4524;51.364;5.448;2024-02-21T14:28:49;8.20;;;2.53;;
8978;SDS011;4524;51.364;5.448;2024-02-21T14:31:17;6.35;;;2.50;;
8978;SDS011;4524;51.364;5.448;2024-02-21T14:33:45;4.95;;;2.95;;
8978;SDS011;4524;51.364;5.448;2024-02-21T14:36:13;9.35;;;2.90;;
8978;SDS011;4524;51.364;5.448;2024-02-21T14:38:42;8.30;;;2.92;;
8978;SDS011;4524;51.364;5.448;2024-02-21T14:41:11;5.38;;;4.18;;
8978;SDS011;4524;51.364;5.448;2024-02-21T14:43:40;7.75;;;3.72;;
8978;SDS011;4524;51.364;5.448;2024-02-21T14:46:10;5.57;;;3.58;;
8978;SDS011;4524;51.364;5.448;2024-02-21T14:48:39;7.78;;;4.03;;
8978;SDS011;4524;51.364;5.448;2024-02-21T14:51:07;6.95;;;3.83;;
8978;SDS011;4524;51.364;5.448;2024-02-21T14:53:35;5.70;;;3.17;;
8978;SDS011;4524;51.364;5.448;2024-02-21T14:56:03;7.70;;;4.13;;
8978;SDS011;4524;51.364;5.448;2024-02-21T14:58:33;5.38;;;3.28;;
8978;SDS011;4524;51.364;5.448;2024-02-21T15:01:03;6.50;;;3.40;;
8978;SDS011;4524;51.364;5.448;2024-02-21T15:03:31;7.85;;;2.22;;
8978;SDS011;4524;51.364;5.448;2024-02-21T15:05:59;8.02;;;3.78;;
8978;SDS011;4524;51.364;5.448;2024-02-21T15:08:28;6.72;;;3.40;;
8978;SDS011;4524;51.364;5.448;2024-02-21T15:10:56;7.45;;;3.80;;
8978;SDS011;4524;51.364;5.448;2024-02-21T15:13:24;6.00;;;3.50;;
8978;SDS011;4524;51.364;5.448;2024-02-21T15:15:52;3.60;;;2.22;;
8978;SDS011;4524;51.364;5.448;2024-02-21T15:18:22;5.32;;;2.85;;
8978;SDS011;4524;51.364;5.448;2024-02-21T15:20:50;4.22;;;3.00;;
8978;SDS011;4524;51.364;5.448;2024-02-21T15:23:18;7.35;;;2.75;;
8978;SDS011;4524;51.364;5.448;2024-02-21T15:25:46;5.85;;;3.58;;
8978;SDS011;4524;51.364;5.448;2024-02-21T15:28:14;7.72;;;2.40;;
8978;SDS011;4524;51.364;5.448;2024-02-21T15:30:43;6.72;;;4.35;;
8978;SDS011;4524;51.364;5.448;2024-02-21T15:33:10;7.00;;;2.83;;